Aérodrome :
LOGIN :

S'inscrire | Disclaimer

   EN    FR    IT 

 










Légende :    VFR   VFR Marginal   IFR   IFR Intensif   IFR Très Intensif
Visi : 
Plafond : 
>= 8 km
>= 3000ft
5 à 8 km
1000 à 3000 ft
1500m à 5 km
500 à 1000 ft
800 à 1500m
200 à 500 ft
< 800m
< 200 ft
Symboles :   Orages  Brouillard  Fortes neiges  Fortes précipitations  Vent > 20 kt
SIGMETs :   Divers  Orages  Givrage  Turbulence  Onde Orograph.  Cendres Volcan.






- Altitude de l'aérodrome : 53 ft
- Code IATA : AGP


LEMG - Malaga

DERNIER METAR :
  • 171200Z 28006KT 250V330 9999 BKN045 16/05 Q1019 NOSIG

METARs EXPIRÉS :
  • 171130Z 28007KT 9999 BKN045 16/04 Q1019 NOSIG
  • 171100Z 28008KT 250V310 9999 SCT050 BKN060 16/03 Q1019 NOSIG
  • 171030Z 28008KT 9999 SCT050 BKN060 16/02 Q1020 NOSIG
  • 171000Z 28007KT 250V320 9999 FEW050 SCT060 15/03 Q1020 NOSIG
  • 170930Z 28005KT 240V320 9999 FEW050 14/02 Q1020 NOSIG

TAF TAF LEMG
Valide du 17 à 12h jusqu'au 18 à 12h UTC


171100Z 1712/1812 28006KT 9999 BKN040 TX18/1715Z TN11/1807Z
TEMPO 1801/1806 4000 RA BKN014
BECMG 1804/1807 30016KT
PROB40
TEMPO 1806/1812 30018G28KT



MET'MAP, la Météo Aéronautique d'un coup d'oeil ! - Copyright ORBIFLY Décembre 2007 - Disclaimer

ORBIFLY MET'MAP TEAM :

Programmation & Développement : Alexandra Zaïnal
Conception & Développement : Baudouin d'Aumeries
Co-Programmation & Développement : Marc-Olivier Méhu
Soutien technique & logistique : Manuel Goepfert

Contact : metmap@orbifly.com




SOURCES & CREDITS :

   NOAA